Nipigon, Canada
Current Conditions -  °F | °C
As of 2:00 AM on Friday 19 Dec 2014 (Local Time) from CYQT Reporting Station
Clear Clear  
Wind Chill: -12°   Ceiling: Unl
Heat Index:   Visibility: 15mi
Dew Point: -4°   Wind: 6mph
Humidity: 85%   Direction: 230°SW
Pressure: 30.31"   Gusts: NA
Location:  49.01°N, 88.26°W
Report Text: CYQT 190700Z 23005KT 15SM SKC M18/M20 A3031 RMK SLP283
Loading
Personal Weather Stations






























Interactive Weather Map New forecast layout! Learn more

10-Day Weather Forecast

Advertisements
Track Severe Weather on mobile